• Join FlightAware (Why Join?)
  • Login
  • US Flag 
10:00PM EDT


 

Airport Tracker/Info


-or-


 

Live Flight TrackerFlight Track Log ✈ USC105 ✈ 30-Apr-2013 ✈ KYIP - KLCK

Flight Track Log - Related Links

Times and Time Zones

All times are in EDT time to prevent confusion due to time zone crossing. See the USC105 flight status page for this flight to view local times or setup timezone preferences in your user account.

Time Position Orientation Groundspeed Altitude Reporting Facility
EDT Latitude Longitude Course Direction KTS MPH feet Rate Location/Type
07:32AM 42.2064 -83.5772 232° Southwest 99 114 2,700  Level Cleveland Center
07:33AM 42.1828 -83.6097 226° Southwest 143 165 3,000 120 Climbing Cleveland Center
07:34AM 42.1492 -83.6192 192° South 133 153 3,000  Level Cleveland Center
07:35AM 42.1119 -83.6033 162° South 147 169 3,000  Level Cleveland Center
07:36AM 42.0708 -83.5792 156° South 159 183 3,000 300 Level Cleveland Center
07:38AM 42.0001 -83.5581 166° South  Level Estimated
07:45AM 41.6737 -83.4612 164° South  Level Estimated
07:46AM 41.6270 -83.4474 180° South  Level Estimated
07:46AM 41.6603 -83.3497 157° South 163 188 6,900  Level Indianapolis Center
07:47AM 41.5892 -83.4083 142° Southeast  Level FlightAware Approximate
07:48AM 41.5515 -83.3693 142° Southeast  Level FlightAware Approximate
07:48AM 41.6094 -83.3397 172° South 178 205 7,000  Level Indianapolis Center
07:49AM 41.5046 -83.3570 204° Southwest  Level Estimated
07:49AM 41.5583 -83.3261 169° South 184 212 7,000  Level Indianapolis Center
07:50AM 41.4602 -83.3804 202° Southwest  Level FlightAware Approximate
07:50AM 41.5075 -83.3150 171° South 184 212 7,000  Level Indianapolis Center
07:51AM 41.4157 -83.4038 202° Southwest  Level FlightAware Approximate
07:51AM 41.4569 -83.3031 170° South 184 212 7,000  Level Indianapolis Center
07:52AM 41.3715 -83.3792 157° South  Level FlightAware Approximate
07:52AM 41.4058 -83.2919 171° South 184 212 7,000  Level Indianapolis Center
07:53AM 41.3558 -83.2792 169° South 182 209 7,000 -60 Level Indianapolis Center
07:54AM 41.3058 -83.2683 171° South 181 208 6,900 -60 Descending Indianapolis Center
07:55AM 41.2458 -83.2547 170° South 185 213 6,900  Level Indianapolis Center
07:56AM 41.1961 -83.2419 169° South 181 208 6,900  Level Indianapolis Center
07:57AM 41.1450 -83.2311 171° South 184 212 6,900  Level Indianapolis Center
07:58AM 41.0947 -83.2178 169° South 182 209 6,900  Level Indianapolis Center
07:59AM 41.0428 -83.2064 171° South 186 214 6,900  Level Indianapolis Center
08:00AM 40.9925 -83.1947 170° South 183 211 6,900  Level Indianapolis Center
08:01AM 40.9397 -83.1828 170° South 188 216 6,900  Level Indianapolis Center
08:02AM 40.8892 -83.1714 170° South 185 213 6,900  Level Indianapolis Center
08:03AM 40.8375 -83.1592 170° South 186 214 6,900  Level Indianapolis Center
08:04AM 40.7783 -83.1464 171° South 185 213 6,900  Level Indianapolis Center
08:05AM 40.7261 -83.1333 169° South 187 215 6,900  Level Indianapolis Center
08:06AM 40.6750 -83.1217 170° South 186 214 6,900  Level Indianapolis Center
08:07AM 40.6231 -83.1108 171° South 187 215 6,900  Level Indianapolis Center
08:08AM 40.5711 -83.0986 170° South 187 215 6,900  Level Indianapolis Center
08:09AM 40.5194 -83.0869 170° South 187 215 6,900  Level Indianapolis Center
08:10AM 40.4694 -83.0736 169° South 187 215 6,900  Level Indianapolis Center
08:11AM 40.4372 -83.0725 178° South 186 214 6,900  Level Indianapolis Center
08:11AM 40.4178 -83.0681 170° South 186 214 6,900  Level Indianapolis Center
08:12AM 40.3872 -83.0719 186° South 187 215 6,900  Level Indianapolis Center
08:12AM 40.3572 -83.0689 176° South 184 212 6,900  Level Indianapolis Center
08:13AM 40.3347 -83.0714 185° South 185 213 6,900  Level Indianapolis Center
08:13AM 40.3050 -83.0686 176° South 185 213 6,900 -420 Level Indianapolis Center
08:14AM 40.2825 -83.0706 184° South 188 216 6,500 -900 Descending Indianapolis Center
08:14AM 40.2481 -83.0667 175° South 199 229 6,000 -720 Descending Indianapolis Center
08:15AM 40.2264 -83.0669 181° South 209 241 5,800 -720 Descending Indianapolis Center
08:15AM 40.1914 -83.0644 177° South 203 234 5,300 -900 Descending Indianapolis Center
08:16AM 40.1658 -83.0653 181° South 201 231 4,900 -420 Descending Indianapolis Center
08:16AM 40.1358 -83.0622 176° South 200 230 4,900  Level Indianapolis Center
08:17AM 40.1197 -83.0625 181° South 185 213 4,900  Level Indianapolis Center
08:17AM 40.0850 -83.0608 178° South 188 216 4,900  Level Indianapolis Center
08:18AM 40.0633 -83.0614 181° South 176 203 4,900 -300 Level Indianapolis Center
08:18AM 40.0356 -83.0581 175° South 180 207 4,600 -600 Descending Indianapolis Center
08:19AM 40.0131 -83.0611 186° South 186 214 4,300 -600 Descending Indianapolis Center
08:19AM 39.9833 -83.0603 179° South 182 209 4,000 -420 Descending Indianapolis Center
08:20AM 39.9589 -83.0603 180° South 172 198 3,900 -300 Descending Indianapolis Center
08:20AM 39.9375 -83.0486 157° South 179 206 3,700 -720 Descending Indianapolis Center
08:21AM 39.9142 -83.0389 162° South 170 196 3,200 -1,080 Descending Indianapolis Center
08:21AM 39.8914 -83.0292 162° South 175 201 2,600 -1,020 Descending Indianapolis Center
08:22AM 39.8733 -83.0231 165° South 172 198 2,300 -720 Descending Indianapolis Center
08:22AM 39.8475 -83.0083 156° South 171 197 1,900 -420 Descending Indianapolis Center
08:23AM 39.8353 -82.9997 152° Southeast 151 174 1,900 -120 Level Indianapolis Center
08:24AM 39.8061 -82.9833 157° South 153 176 1,800 -240 Descending Indianapolis Center
08:24AM 39.8011 -82.9794 149° Southeast 131 151 1,700 -600 Descending Indianapolis Center
08:25AM 39.7917 -82.9589 121° Southeast 134 154 1,200 -660 Descending Indianapolis Center
08:27AM 39.8000 -82.9167 57° Northeast  Level FlightAware Approximate